TimeCST,TemperatureF,Dew PointF,Humidity,Sea Level PressureIn,VisibilityMPH,Wind Direction,Wind SpeedMPH,Gust SpeedMPH,PrecipitationIn,Events,Conditions,WindDirDegrees,DateUTC
12:54 AM,24.1,16.0,71,30.39,10.0,North,5.8,-,N/A,,Overcast,350,2013-03-02 06:54:00
1:54 AM,23.0,15.1,72,30.38,10.0,North,5.8,-,N/A,,Overcast,350,2013-03-02 07:54:00
2:54 AM,21.9,15.1,75,30.38,10.0,Variable,4.6,-,N/A,,Overcast,0,2013-03-02 08:54:00
3:54 AM,19.9,15.1,81,30.38,9.0,NW,4.6,-,N/A,,Overcast,320,2013-03-02 09:54:00
4:54 AM,19.9,14.0,78,30.38,5.0,NNW,3.5,-,N/A,,Haze,340,2013-03-02 10:54:00
5:54 AM,16.0,12.0,84,30.39,5.0,West,4.6,-,N/A,,Overcast,270,2013-03-02 11:54:00
6:31 AM,15.8,10.4,79,30.34,5.0,WNW,3.5,-,N/A,,Scattered Clouds,300,2013-03-02 12:31:00
6:54 AM,12.9,10.0,88,30.38,6.0,WNW,3.5,-,N/A,,Clear,290,2013-03-02 12:54:00
7:54 AM,14.0,10.0,84,30.39,5.0,West,3.5,-,N/A,,Scattered Clouds,270,2013-03-02 13:54:00
8:54 AM,19.9,14.0,78,30.39,6.0,Calm,Calm,-,N/A,,Haze,0,2013-03-02 14:54:00
9:54 AM,23.0,16.0,74,30.37,7.0,Calm,Calm,-,N/A,,Clear,0,2013-03-02 15:54:00
10:54 AM,25.0,17.1,72,30.34,5.0,SSE,4.6,-,N/A,,Haze,160,2013-03-02 16:54:00
11:54 AM,28.0,18.0,66,30.34,5.0,Calm,Calm,-,N/A,,Haze,0,2013-03-02 17:54:00
12:54 PM,30.0,19.0,64,30.29,6.0,South,5.8,-,N/A,,Haze,190,2013-03-02 18:54:00
1:54 PM,30.9,19.0,61,30.27,5.0,SSW,5.8,-,N/A,,Haze,200,2013-03-02 19:54:00
2:54 PM,32.0,19.0,59,30.25,5.0,South,6.9,-,N/A,,Haze,170,2013-03-02 20:54:00
3:54 PM,32.0,18.0,56,30.23,6.0,South,8.1,-,N/A,,Haze,170,2013-03-02 21:54:00
4:54 PM,33.1,18.0,54,30.21,6.0,South,8.1,-,N/A,,Haze,170,2013-03-02 22:54:00
5:54 PM,33.1,21.9,64,30.20,5.0,SE,8.1,-,N/A,,Haze,140,2013-03-02 23:54:00
7:54 PM,32.0,24.1,73,30.18,4.0,SE,8.1,-,N/A,,Haze,140,2013-03-03 01:54:00
8:54 PM,30.0,24.1,79,30.17,5.0,SE,9.2,-,N/A,,Haze,140,2013-03-03 02:54:00
9:54 PM,28.9,23.0,78,30.15,6.0,SE,9.2,-,N/A,,Haze,140,2013-03-03 03:54:00
10:54 PM,28.9,23.0,78,30.14,5.0,SE,8.1,-,N/A,,Haze,130,2013-03-03 04:54:00
11:54 PM,28.0,23.0,81,30.12,4.0,SSE,9.2,-,N/A,,Haze,150,2013-03-03 05:54:00